Flight Track Log - Related Links

Times and Time Zones

All times are in EDT time to prevent confusion due to time zone crossing. See the N960DL flight status page for this flight to view local times or setup timezone preferences in your user account.

Time Position Orientation Groundspeed Altitude Reporting Facility
EDT Latitude Longitude Course Direction KTS MPH feet Rate Location/Type
Wed 10:31:14 AM 25.7981 -80.2767 336° Northwest 172 198 900  Level Miami Center
Wed 10:31:57 AM 25.7992 -80.2353 88° East 201 231 2,200 2,250 Climbing Miami Center
Wed 10:32:58 AM 25.8050 -80.1592 85° East 267 307 4,800 2,361 Climbing Miami Center
Wed 10:33:59 AM 25.8583 -80.1100 40° Northeast 273 314 7,000 1,245 Climbing Miami Center
Wed 10:34:44 AM 25.9161 -80.1347 339° North 296 341 7,000 1,600 Level Miami Center
Wed 10:35:44 AM 25.9692 -80.1961 314° West 272 313 9,800 2,200 Climbing Miami Center
Wed 10:36:00 AM 26.4195 -80.5180 336° Northwest  Level FlightAware Approximate
Wed 10:36:44 AM 26.0367 -80.2606 319° Northwest 291 335 11,400  Level Miami Center
Wed 10:37:44 AM 26.1206 -80.3344 322° Northwest 342 394 13,200 2,250 Climbing Miami Center
Wed 10:38:44 AM 26.2125 -80.4136 322° Northwest 380 437 15,900 2,300 Climbing Miami Center
Wed 10:39:44 AM 26.3053 -80.4675 332° Northwest 418 481 17,800 2,300 Climbing Miami Center
Wed 10:40:44 AM 26.4269 -80.5244 337° Northwest 425 489 20,500 2,350 Climbing Miami Center
Wed 10:41:44 AM 26.5303 -80.5742 337° Northwest 437 503 22,500 1,900 Climbing Miami Center
Wed 10:42:44 AM 26.6561 -80.6339 337° Northwest 442 509 24,300 2,100 Climbing Miami Center
Wed 10:43:44 AM 26.7592 -80.6814 338° Northwest 442 509 26,700 2,300 Climbing Miami Center
Wed 10:44:44 AM 26.8750 -80.7225 342° North 437 503 28,900 2,400 Climbing Miami Center
Wed 10:45:44 AM 26.9950 -80.7661 342° North 421 484 31,500 1,950 Climbing Miami Center
Wed 10:46:44 AM 27.1025 -80.8047 342° North 416 479 32,800 1,250 Climbing Miami Center
Wed 10:47:44 AM 27.2058 -80.8431 342° North 405 466 34,000 1,050 Climbing Miami Center
Wed 10:48:44 AM 27.2989 -80.8792 341° North 400 460 34,900 500 Climbing Miami Center
Wed 10:49:44 AM 27.4147 -80.9158 344° North 407 468 35,000 50 Climbing Miami Center
Wed 10:50:44 AM 27.5181 -80.9547 342° North 400 460 35,000  Level Miami Center
Wed 10:51:44 AM 27.6214 -80.9936 342° North 400 460 35,000 450 Level Miami Center
Wed 10:52:44 AM 27.7308 -81.0325 343° North 400 460 35,900 750 Climbing Miami Center
Wed 10:53:44 AM 27.8278 -81.0692 342° North 393 452 36,500 550 Climbing Miami Center
Wed 10:54:44 AM 27.9392 -81.1108 342° North 406 467 37,000 250 Climbing Miami Center
Wed 10:55:44 AM 28.0569 -81.1553 342° North 400 460 37,000  Level Miami Center
Wed 10:56:44 AM 28.1622 -81.1944 342° North 400 460 37,000  Level Miami Center
Wed 10:57:44 AM 28.2653 -81.2339 341° North 394 453 37,000  Level Miami Center
Wed 10:58:44 AM 28.3581 -81.2681 342° North 394 453 37,000  Level Miami Center
Wed 10:59:44 AM 28.4656 -81.3031 344° North 400 460 37,000  Level Miami Center
Wed 11:00:44 AM 28.5706 -81.3450 341° North 400 460 37,000  Level Miami Center
Wed 11:01:43 AM 28.6772 -81.3758 346° North 398 458 37,000  Level Jacksonville Center
Wed 11:02:43 AM 28.7883 -81.4144 343° North 398 458 37,000  Level Jacksonville Center
Wed 11:03:43 AM 28.8972 -81.4531 343° North 403 464 37,000  Level Jacksonville Center
Wed 11:04:43 AM 29.0189 -81.4939 344° North 408 470 37,000  Level Jacksonville Center
Wed 11:05:43 AM 29.1297 -81.5306 344° North 408 470 37,000  Level Jacksonville Center
Wed 11:06:43 AM 29.2431 -81.5694 343° North 408 470 37,000  Level Jacksonville Center
Wed 11:07:43 AM 29.3561 -81.6058 344° North 415 478 37,000  Level Jacksonville Center
Wed 11:08:43 AM 29.4692 -81.6450 343° North 420 483 37,000  Level Jacksonville Center
Wed 11:09:43 AM 29.5803 -81.6794 345° North 420 483 37,000 -50 Level Jacksonville Center
Wed 11:10:43 AM 29.6911 -81.7139 345° North 420 483 36,900  Descending Jacksonville Center
Wed 11:11:43 AM 29.8022 -81.7508 344° North 415 478 37,000 50 Climbing Jacksonville Center
Wed 11:12:43 AM 29.9111 -81.7903 343° North 410 472 37,000  Level Jacksonville Center
Wed 11:13:43 AM 30.0219 -81.8250 345° North 410 472 37,000  Level Jacksonville Center
Wed 11:14:43 AM 30.1331 -81.8647 343° North 410 472 37,000  Level Jacksonville Center
Wed 11:15:43 AM 30.2481 -81.8875 350° North 410 472 37,000  Level Jacksonville Center
Wed 11:16:43 AM 30.3689 -81.8694 North 416 479 37,000  Level Jacksonville Center
Wed 11:17:43 AM 30.4856 -81.8511 North 417 480 37,000 -50 Level Jacksonville Center
Wed 11:18:43 AM 30.5961 -81.8403 North 424 488 36,900  Descending Jacksonville Center
Wed 11:19:43 AM 30.7131 -81.8244 North 424 488 37,000  Climbing Jacksonville Center
Wed 11:20:43 AM 30.8319 -81.8158 North 424 488 36,900 -50 Descending Jacksonville Center
Wed 11:21:43 AM 30.9347 -81.8656 337° Northwest 405 466 36,900 50 Level Jacksonville Center
Wed 11:22:43 AM 31.0375 -81.9275 333° Northwest 400 460 37,000  Climbing Jacksonville Center
Wed 11:23:43 AM 31.1381 -81.9847 334° Northwest 400 460 36,900  Descending Jacksonville Center
Wed 11:24:43 AM 31.2389 -82.0469 332° Northwest 405 466 37,000 50 Climbing Jacksonville Center
Wed 11:25:43 AM 31.3414 -82.1044 334° Northwest 405 466 37,000 -50 Level Jacksonville Center
Wed 11:26:43 AM 31.4442 -82.1669 333° Northwest 412 474 36,900  Descending Jacksonville Center
Wed 11:27:43 AM 31.5508 -82.2269 334° Northwest 412 474 37,000 39 Climbing Jacksonville Center
Wed 11:29:17 AM 31.7075 -82.3203 333° Northwest 405 466 37,000 -312 Level Atlanta Center
Wed 11:30:17 AM 31.8106 -82.3794 334° Northwest 405 466 36,200 -1,000 Descending Atlanta Center
Wed 11:31:17 AM 31.9136 -82.4436 332° Northwest 411 473 35,000 -600 Descending Atlanta Center
Wed 11:32:17 AM 32.0189 -82.5031 334° Northwest 411 473 35,000  Level Atlanta Center
Wed 11:33:17 AM 32.1178 -82.5747 328° Northwest 411 473 35,000 -400 Level Atlanta Center
Wed 11:34:17 AM 32.2003 -82.6667 317° Northwest 411 473 34,200 -900 Descending Atlanta Center
Wed 11:35:17 AM 32.2825 -82.7589 317° Northwest 411 473 33,200 -950 Descending Atlanta Center
Wed 11:36:17 AM 32.3669 -82.8536 317° Northwest 411 473 32,300 -900 Descending Atlanta Center
Wed 11:37:17 AM 32.4514 -82.9458 317° Northwest 411 473 31,400 -900 Descending Atlanta Center
Wed 11:38:17 AM 32.5378 -83.0433 316° Northwest 411 473 30,500 -950 Descending Atlanta Center
Wed 11:39:17 AM 32.6242 -83.1386 317° Northwest 411 473 29,500 -900 Descending Atlanta Center
Wed 11:40:17 AM 32.7083 -83.2364 316° Northwest 417 480 28,700 -800 Descending Atlanta Center
Wed 11:41:17 AM 32.7944 -83.3347 316° Northwest 417 480 27,900 3,150 Descending Atlanta Center
Wed 11:42:17 AM 32.8806 -83.4328 316° Northwest 422 486 35,000 -3,050 Climbing Atlanta Center
Wed 11:43:17 AM 32.9708 -83.5311 318° Northwest 432 497 21,800 -7,950 Descending Atlanta Center
Wed 11:44:17 AM 33.0567 -83.6300 316° Northwest 432 497 19,100 -2,600 Descending Atlanta Center
Wed 11:45:17 AM 33.1467 -83.7286 317° Northwest 419 482 16,600 -2,765 Descending Atlanta Center
Wed 11:45:59 AM 33.2000 -83.8000 312° West 387 445 14,400 -1,529 Descending Atlanta TRACON
Wed 11:46:59 AM 33.2667 -83.8833 314° West 382 440 14,000 -308 Descending Atlanta TRACON
Wed 11:47:17 AM 33.2892 -83.9144 311° West 380 437 14,000  Level Atlanta Center
Wed 11:48:17 AM 33.3539 -84.0164 307° West 380 437 14,000 -50 Level Atlanta Center
Wed 11:49:17 AM 33.4228 -84.1158 310° West 380 437 13,900 -529 Descending Atlanta Center
Wed 11:49:59 AM 33.4833 -84.1667 325° Northwest 382 440 13,100 -529 Descending Atlanta TRACON
Wed 11:50:59 AM 33.5667 -84.2333 326° Northwest 383 441 13,000 -50 Descending Atlanta TRACON
Wed 11:51:59 AM 33.6667 -84.3000 331° Northwest 371 427 13,000 -100 Level Atlanta TRACON
Wed 11:52:59 AM 33.7333 -84.3667 320° Northwest 302 348 12,800 -1,250 Descending Atlanta TRACON
Wed 11:53:59 AM 33.7333 -84.4500 270° West 274 315 10,500 -2,083 Descending Atlanta TRACON
Wed 11:55:00 AM 33.7333 -84.5500 270° West 263 303 8,600 -2,033 Descending Atlanta TRACON
Wed 11:56:00 AM 33.7333 -84.6333 270° West 259 298 6,400 -1,700 Descending Atlanta TRACON
Wed 11:57:00 AM 33.6833 -84.6667 209° Southwest 225 259 5,200 -1,200 Descending Atlanta TRACON

Login

Don't have an account? Register now (free) for customized features, flight alerts, and more!